createdAt,value
2023-02-11T00:01:29.119Z,26.00
2023-02-11T00:04:00.090Z,24.43
2023-02-11T00:06:31.746Z,24.40
2023-02-11T00:09:01.995Z,24.10
2023-02-11T00:11:32.900Z,24.40
2023-02-11T00:14:04.211Z,24.03
2023-02-11T00:16:37.179Z,24.03
2023-02-11T00:19:08.054Z,24.07
2023-02-11T00:21:38.299Z,24.30
2023-02-11T00:24:08.861Z,22.07
2023-02-11T00:26:39.027Z,22.00
2023-02-11T00:29:09.312Z,24.77
2023-02-11T00:31:41.958Z,22.23
2023-02-11T00:34:12.119Z,23.60
2023-02-11T00:36:42.099Z,23.40
2023-02-11T00:39:12.320Z,25.97
2023-02-11T00:41:42.322Z,25.00
2023-02-11T00:44:12.209Z,25.83
2023-02-11T00:46:45.835Z,25.07
2023-02-11T00:49:15.825Z,22.67
2023-02-11T00:51:45.731Z,23.23
2023-02-11T00:54:15.817Z,24.63
2023-02-11T00:56:46.504Z,22.97
2023-02-11T00:59:16.394Z,22.70
2023-02-11T01:01:49.943Z,23.20
2023-02-11T01:04:19.892Z,22.17
2023-02-11T01:06:49.978Z,23.37
2023-02-11T01:09:21.201Z,23.90
2023-02-11T01:11:51.107Z,21.07
2023-02-11T01:14:21.118Z,21.87
2023-02-11T01:16:56.290Z,21.40
2023-02-11T01:19:26.175Z,22.37
2023-02-11T01:21:56.065Z,21.77
2023-02-11T01:24:25.952Z,22.60
2023-02-11T01:26:55.856Z,21.97
2023-02-11T01:29:27.480Z,23.00
2023-02-11T01:32:00.633Z,21.90
2023-02-11T01:34:31.042Z,21.77
2023-02-11T01:37:01.664Z,23.37
2023-02-11T01:39:35.533Z,22.93
2023-02-11T01:42:05.574Z,22.20
2023-02-11T01:44:38.294Z,20.90
2023-02-11T01:47:10.870Z,20.50
2023-02-11T01:49:45.175Z,22.57
2023-02-11T01:52:20.198Z,20.30
2023-02-11T01:55:05.607Z,21.27
2023-02-11T01:57:38.104Z,20.43
2023-02-11T02:00:13.105Z,22.57
2023-02-11T02:02:55.174Z,21.40
2023-02-11T02:05:36.149Z,20.00
2023-02-11T02:08:13.542Z,22.73
2023-02-11T02:10:46.293Z,21.90
2023-02-11T02:13:17.518Z,20.47
2023-02-11T02:15:52.938Z,20.47
2023-02-11T02:18:38.827Z,20.03
2023-02-11T02:21:50.484Z,23.97
2023-02-11T02:24:59.941Z,20.13
2023-02-11T02:27:40.805Z,22.53
2023-02-11T02:30:41.110Z,22.03
2023-02-11T02:33:37.860Z,22.33
2023-02-11T02:36:15.504Z,19.83
2023-02-11T02:38:51.541Z,19.97
2023-02-11T02:41:26.408Z,19.67
2023-02-11T02:43:56.886Z,18.57
2023-02-11T02:46:29.591Z,21.07
2023-02-11T02:49:03.123Z,19.97
2023-02-11T02:51:52.969Z,20.57
2023-02-11T02:55:01.826Z,20.60
2023-02-11T02:57:47.397Z,20.73
2023-02-11T03:00:26.761Z,20.07
2023-02-11T03:03:12.762Z,17.60
2023-02-11T03:05:54.703Z,19.83
2023-02-11T03:08:32.384Z,21.43
2023-02-11T03:11:04.233Z,20.97
2023-02-11T03:13:37.056Z,22.40
2023-02-11T03:16:12.053Z,21.03
2023-02-11T03:18:45.054Z,20.33
2023-02-11T03:21:19.916Z,20.70
2023-02-11T03:23:56.457Z,20.17
2023-02-11T03:26:32.837Z,22.37
2023-02-11T03:29:07.692Z,22.73
2023-02-11T03:31:44.632Z,21.83
2023-02-11T03:34:18.899Z,21.37
2023-02-11T03:36:57.069Z,21.77
2023-02-11T03:39:32.342Z,24.20
2023-02-11T03:42:03.444Z,23.10
2023-02-11T03:44:44.963Z,23.93
2023-02-11T03:47:16.743Z,23.23
2023-02-11T03:49:50.553Z,23.57
2023-02-11T03:52:24.756Z,23.50
2023-02-11T03:54:59.776Z,23.52
2023-02-11T03:57:29.885Z,19.93
2023-02-11T04:00:01.553Z,20.00
2023-02-11T04:02:42.562Z,19.63
2023-02-11T04:05:17.453Z,19.23
2023-02-11T04:07:52.879Z,20.10
2023-02-11T04:10:23.023Z,20.90
2023-02-11T04:12:53.279Z,20.77
2023-02-11T04:15:23.410Z,19.70
2023-02-11T04:17:53.622Z,20.30
2023-02-11T04:20:23.751Z,18.83
2023-02-11T04:22:56.248Z,19.30
2023-02-11T04:25:26.321Z,20.43
2023-02-11T04:27:56.332Z,22.90
2023-02-11T04:30:27.967Z,22.87
2023-02-11T04:32:57.934Z,21.90
2023-02-11T04:35:27.827Z,19.67
2023-02-11T04:38:00.334Z,21.17
2023-02-11T04:40:30.643Z,21.13
2023-02-11T04:43:00.655Z,20.63
2023-02-11T04:45:30.852Z,19.13
2023-02-11T04:48:01.024Z,21.00
2023-02-11T04:50:31.129Z,22.07
2023-02-11T04:53:03.582Z,20.63
2023-02-11T04:55:33.676Z,17.97
2023-02-11T04:58:03.624Z,19.63
2023-02-11T05:00:33.580Z,20.63
2023-02-11T05:03:03.474Z,18.67
2023-02-11T05:05:33.353Z,20.70
2023-02-11T05:08:05.984Z,18.10
2023-02-11T05:10:36.286Z,18.43
2023-02-11T05:13:06.348Z,20.90
2023-02-11T05:15:36.257Z,19.93
2023-02-11T05:18:06.336Z,17.23
2023-02-11T05:20:36.254Z,19.50
2023-02-11T05:23:08.778Z,18.10
2023-02-11T05:25:39.017Z,17.97
2023-02-11T05:28:09.680Z,19.47
2023-02-11T05:30:39.643Z,18.60
2023-02-11T05:33:09.641Z,17.53
2023-02-11T05:35:39.552Z,18.57
2023-02-11T05:38:12.085Z,18.30
2023-02-11T05:40:42.071Z,18.83
2023-02-11T05:43:12.113Z,16.80
2023-02-11T05:45:42.208Z,18.53
2023-02-11T05:48:12.161Z,18.47
2023-02-11T05:50:42.125Z,16.57
2023-02-11T05:53:14.965Z,18.20
2023-02-11T05:55:45.267Z,17.90
2023-02-11T05:58:15.484Z,16.77
2023-02-11T06:00:45.424Z,17.67
2023-02-11T06:03:15.649Z,16.40
2023-02-11T06:05:46.142Z,17.03
2023-02-11T06:08:18.788Z,16.10
2023-02-11T06:10:49.330Z,18.27
2023-02-11T06:13:19.858Z,17.83
2023-02-11T06:15:59.142Z,17.67
2023-02-11T06:18:29.622Z,16.07
2023-02-11T06:21:00.104Z,16.87
2023-02-11T06:23:32.644Z,17.80
2023-02-11T06:26:05.339Z,17.77
2023-02-11T06:28:35.972Z,17.90
2023-02-11T06:31:09.808Z,16.47
2023-02-11T06:33:40.117Z,16.02
2023-02-11T06:36:16.083Z,15.60
2023-02-11T06:38:49.366Z,16.57
2023-02-11T06:41:21.953Z,16.43
2023-02-11T06:43:52.454Z,17.67
2023-02-11T06:46:22.828Z,14.60
2023-02-11T06:48:53.140Z,16.37
2023-02-11T06:51:23.358Z,15.33
2023-02-11T06:53:56.117Z,16.33
2023-02-11T06:56:27.475Z,16.57
2023-02-11T06:58:58.180Z,15.20
2023-02-11T07:01:28.809Z,17.23
2023-02-11T07:03:59.527Z,17.80
2023-02-11T07:06:30.602Z,17.57
2023-02-11T07:09:03.583Z,17.67
2023-02-11T07:11:34.672Z,17.90
2023-02-11T07:14:08.382Z,18.10
2023-02-11T07:16:38.720Z,16.58
2023-02-11T07:19:08.882Z,17.93
2023-02-11T07:21:39.095Z,16.50
2023-02-11T07:24:13.007Z,15.43
2023-02-11T07:26:44.711Z,17.80
2023-02-11T07:29:14.920Z,18.17
2023-02-11T07:31:45.319Z,18.37
2023-02-11T07:34:15.619Z,19.53
2023-02-11T07:36:46.359Z,21.93
2023-02-11T07:39:20.072Z,25.10
2023-02-11T07:41:50.437Z,21.88
2023-02-11T07:44:20.974Z,21.63
2023-02-11T07:46:51.482Z,19.00
2023-02-11T07:49:21.837Z,19.37
2023-02-11T07:51:52.001Z,19.30
2023-02-11T07:54:24.841Z,18.27
2023-02-11T07:56:55.129Z,16.43
2023-02-11T07:59:25.413Z,17.77
2023-02-11T08:01:55.650Z,17.30
2023-02-11T08:04:25.846Z,15.37
2023-02-11T08:06:59.275Z,16.83
2023-02-11T08:09:34.448Z,17.87
2023-02-11T08:12:04.797Z,15.10
2023-02-11T08:14:35.346Z,16.00
2023-02-11T08:17:05.510Z,15.57
2023-02-11T08:19:35.701Z,15.37
2023-02-11T08:22:05.879Z,18.10
2023-02-11T08:24:38.466Z,17.53
2023-02-11T08:27:08.681Z,16.50
2023-02-11T08:29:39.003Z,14.63
2023-02-11T08:32:09.275Z,16.83
2023-02-11T08:34:39.526Z,16.17
2023-02-11T08:37:09.688Z,16.43
2023-02-11T08:39:42.474Z,16.13
2023-02-11T08:42:12.614Z,15.63
2023-02-11T08:44:43.107Z,14.93
2023-02-11T08:47:13.338Z,15.23
2023-02-11T08:49:43.735Z,16.30
2023-02-11T08:52:13.954Z,16.03
2023-02-11T08:54:47.146Z,14.93
2023-02-11T08:57:17.390Z,14.70
2023-02-11T08:59:47.685Z,14.90
2023-02-11T09:02:18.361Z,14.30
2023-02-11T09:04:48.797Z,14.20
2023-02-11T09:07:19.206Z,14.40
2023-02-11T09:09:51.713Z,13.37
2023-02-11T09:12:21.997Z,12.53
2023-02-11T09:14:52.279Z,14.07
2023-02-11T09:17:22.438Z,12.80
2023-02-11T09:19:52.850Z,13.63
2023-02-11T09:22:23.026Z,12.30
2023-02-11T09:24:55.485Z,13.03
2023-02-11T09:27:25.702Z,12.37
2023-02-11T09:29:55.834Z,12.70
2023-02-11T09:32:26.020Z,11.18
2023-02-11T09:34:56.208Z,13.20
2023-02-11T09:37:26.381Z,11.45
2023-02-11T09:39:59.182Z,12.18
2023-02-11T09:42:42.906Z,12.48
2023-02-11T09:45:18.666Z,12.15
2023-02-11T09:47:56.907Z,12.32
2023-02-11T09:50:31.838Z,12.05
2023-02-11T09:53:04.517Z,11.60
2023-02-11T09:55:39.760Z,12.20
2023-02-11T09:58:15.851Z,12.10
2023-02-11T10:00:51.283Z,13.05
2023-02-11T10:03:55.891Z,11.73
2023-02-11T10:06:44.422Z,11.35
2023-02-11T10:09:43.664Z,12.77
2023-02-11T10:12:28.354Z,11.70
2023-02-11T10:15:15.493Z,12.05
2023-02-11T10:17:58.922Z,13.32
2023-02-11T10:20:37.386Z,12.27
2023-02-11T10:23:16.505Z,11.65
2023-02-11T10:25:48.149Z,11.90
2023-02-11T10:28:24.741Z,11.65
2023-02-11T10:31:00.903Z,11.20
2023-02-11T10:33:34.266Z,11.48
2023-02-11T10:36:04.519Z,12.85
2023-02-11T10:38:36.485Z,11.32
2023-02-11T10:41:07.186Z,12.35
2023-02-11T10:43:40.203Z,11.32
2023-02-11T10:46:19.038Z,11.98
2023-02-11T10:48:52.924Z,12.73
2023-02-11T10:51:24.964Z,12.30
2023-02-11T10:54:19.628Z,12.32
2023-02-11T10:56:52.932Z,12.45
2023-02-11T10:59:31.403Z,13.40
2023-02-11T11:02:03.422Z,12.68
2023-02-11T11:04:41.698Z,13.18
2023-02-11T11:07:24.130Z,12.30
2023-02-11T11:09:56.793Z,12.43
2023-02-11T11:12:40.249Z,12.43
2023-02-11T11:15:22.874Z,11.45
2023-02-11T11:17:53.224Z,13.32
2023-02-11T11:20:27.417Z,11.85
2023-02-11T11:23:13.362Z,12.10
2023-02-11T11:25:47.086Z,13.80
2023-02-11T11:28:26.099Z,13.18
2023-02-11T11:30:59.862Z,12.75
2023-02-11T11:33:32.539Z,12.07
2023-02-11T11:36:09.412Z,12.23
2023-02-11T11:38:41.272Z,11.85
2023-02-11T11:41:23.703Z,12.68
2023-02-11T11:43:59.667Z,11.57
2023-02-11T11:46:35.244Z,12.73
2023-02-11T11:49:20.519Z,12.57
2023-02-11T11:52:01.416Z,13.32
2023-02-11T11:54:31.734Z,13.50
2023-02-11T11:57:06.021Z,13.95
2023-02-11T11:59:37.201Z,12.38
2023-02-11T12:02:38.200Z,13.95
2023-02-11T12:05:14.320Z,12.48
2023-02-11T12:08:03.869Z,11.77
2023-02-11T12:10:54.837Z,13.02
2023-02-11T12:13:36.632Z,12.35
2023-02-11T12:16:17.785Z,13.70
2023-02-11T12:19:15.648Z,13.43
2023-02-11T12:21:53.543Z,12.45
2023-02-11T12:24:37.723Z,12.95
2023-02-11T12:27:14.273Z,13.13
2023-02-11T12:29:58.240Z,12.60
2023-02-11T12:32:36.465Z,13.52
2023-02-11T12:35:28.318Z,12.27
2023-02-11T12:38:36.763Z,13.90
2023-02-11T12:41:17.941Z,13.05
2023-02-11T12:43:45.784Z,12.63
2023-02-11T12:46:44.015Z,13.30
2023-02-11T12:49:42.337Z,13.85
2023-02-11T12:52:35.328Z,13.93
2023-02-11T12:55:12.129Z,13.98
2023-02-11T12:57:44.497Z,13.43
2023-02-11T13:00:19.330Z,14.43
2023-02-11T13:02:55.229Z,12.80
2023-02-11T13:05:32.019Z,12.70
2023-02-11T13:08:08.348Z,13.30
2023-02-11T13:10:40.646Z,12.38
2023-02-11T13:13:20.904Z,12.95
2023-02-11T13:15:54.786Z,12.27
2023-02-11T13:18:49.346Z,12.55
2023-02-11T13:21:39.040Z,13.27
2023-02-11T13:24:27.837Z,13.52
2023-02-11T13:27:08.772Z,13.93
2023-02-11T13:29:58.359Z,13.18
2023-02-11T13:32:28.259Z,12.90
2023-02-11T13:35:00.653Z,14.82
2023-02-11T13:37:35.481Z,12.43
2023-02-11T13:40:10.194Z,13.68
2023-02-11T13:42:52.427Z,12.60
2023-02-11T13:45:33.333Z,11.93
2023-02-11T13:48:05.511Z,12.20
2023-02-11T13:50:40.508Z,12.27
2023-02-11T13:53:10.674Z,13.15
2023-02-11T13:55:45.338Z,12.30
2023-02-11T13:58:37.171Z,12.65
2023-02-11T14:01:07.335Z,12.82
2023-02-11T14:03:52.611Z,13.10
2023-02-11T14:06:40.780Z,12.93
2023-02-11T14:09:28.524Z,12.77
2023-02-11T14:12:26.169Z,13.30
2023-02-11T14:15:07.725Z,12.82
2023-02-11T14:17:38.032Z,12.40
2023-02-11T14:20:39.809Z,12.13
2023-02-11T14:23:10.296Z,12.95
2023-02-11T14:25:44.798Z,12.32
2023-02-11T14:28:24.456Z,13.43
2023-02-11T14:31:03.111Z,12.93
2023-02-11T14:33:55.881Z,14.38
2023-02-11T14:36:53.268Z,12.57
2023-02-11T14:39:40.350Z,12.55
2023-02-11T14:42:20.033Z,12.93
2023-02-11T14:44:54.994Z,13.05
2023-02-11T14:47:30.690Z,12.18
2023-02-11T14:50:00.622Z,13.43
2023-02-11T14:52:32.502Z,12.20
2023-02-11T14:55:30.205Z,12.85
2023-02-11T14:58:25.106Z,14.57
2023-02-11T15:01:01.720Z,12.18
2023-02-11T15:03:38.275Z,13.43
2023-02-11T15:06:15.639Z,14.13
2023-02-11T15:08:48.383Z,12.93
2023-02-11T15:11:22.107Z,13.13
2023-02-11T15:13:55.322Z,12.57
2023-02-11T15:16:30.507Z,13.37
2023-02-11T15:19:05.258Z,12.90
2023-02-11T15:21:37.302Z,12.85
2023-02-11T15:24:24.036Z,13.52
2023-02-11T15:27:00.109Z,13.55
2023-02-11T15:29:31.281Z,12.75
2023-02-11T15:32:17.028Z,13.75
2023-02-11T15:34:48.341Z,12.80
2023-02-11T15:37:23.528Z,12.38
2023-02-11T15:39:54.331Z,13.05
2023-02-11T15:42:27.210Z,13.88
2023-02-11T15:45:26.103Z,13.15
2023-02-11T15:48:01.933Z,12.27
2023-02-11T15:50:35.836Z,12.63
2023-02-11T15:53:18.533Z,12.38
2023-02-11T15:55:49.029Z,13.10
2023-02-11T15:58:19.041Z,12.65
2023-02-11T16:00:54.696Z,13.68
2023-02-11T16:03:28.867Z,13.40
2023-02-11T16:05:59.956Z,12.43
2023-02-11T16:08:32.950Z,13.35
2023-02-11T16:11:09.025Z,12.48
2023-02-11T16:13:49.001Z,13.10
2023-02-11T16:16:22.395Z,12.93
2023-02-11T16:19:06.184Z,13.02
2023-02-11T16:21:39.301Z,12.77
2023-02-11T16:24:10.921Z,13.68
2023-02-11T16:26:43.671Z,13.55
2023-02-11T16:29:16.439Z,13.63
2023-02-11T16:31:50.323Z,13.68
2023-02-11T16:34:24.897Z,12.23
2023-02-11T16:36:55.650Z,13.48
2023-02-11T16:39:25.761Z,13.40
2023-02-11T16:41:56.258Z,14.10
2023-02-11T16:44:26.145Z,13.45
2023-02-11T16:46:56.461Z,13.32
2023-02-11T16:49:32.589Z,15.38
2023-02-11T16:52:04.232Z,15.43
2023-02-11T16:54:34.462Z,13.60
2023-02-11T16:57:05.955Z,14.55
2023-02-11T16:59:35.907Z,14.38
2023-02-11T17:02:05.978Z,14.75
2023-02-11T17:04:38.669Z,12.90
2023-02-11T17:07:08.635Z,15.52
2023-02-11T17:09:38.518Z,14.85
2023-02-11T17:12:09.213Z,14.70
2023-02-11T17:14:39.269Z,14.93
2023-02-11T17:17:09.519Z,15.15
2023-02-11T17:19:42.634Z,14.63
2023-02-11T17:22:14.007Z,14.88
2023-02-11T17:24:43.992Z,15.10
2023-02-11T17:27:15.330Z,14.77
2023-02-11T17:29:45.378Z,14.73
2023-02-11T17:32:15.450Z,15.25
2023-02-11T17:34:48.238Z,14.18
2023-02-11T17:37:18.235Z,15.23
2023-02-11T17:39:48.108Z,14.52
2023-02-11T17:42:19.167Z,15.60
2023-02-11T17:44:49.258Z,14.18
2023-02-11T17:47:19.212Z,15.52
2023-02-11T17:49:51.822Z,17.70
2023-02-11T17:52:21.729Z,17.02
2023-02-11T17:54:51.645Z,16.02
2023-02-11T17:57:21.723Z,16.27
2023-02-11T17:59:51.771Z,17.55
2023-02-11T18:02:21.697Z,16.55
2023-02-11T18:04:57.607Z,18.50
2023-02-11T18:07:28.107Z,15.80
2023-02-11T18:09:58.064Z,16.63
2023-02-11T18:12:27.940Z,15.60
2023-02-11T18:14:58.348Z,17.50
2023-02-11T18:17:28.660Z,16.45
2023-02-11T18:20:03.641Z,16.50
2023-02-11T18:22:39.160Z,16.08
2023-02-11T18:25:10.312Z,16.75
2023-02-11T18:27:40.683Z,16.27
2023-02-11T18:30:11.908Z,15.93
2023-02-11T18:32:42.266Z,15.68
2023-02-11T18:35:16.063Z,16.48
2023-02-11T18:37:46.386Z,16.17
2023-02-11T18:40:17.761Z,16.55
2023-02-11T18:42:49.245Z,15.57
2023-02-11T18:45:19.571Z,16.02
2023-02-11T18:47:49.836Z,16.50
2023-02-11T18:50:22.900Z,15.48
2023-02-11T18:52:53.215Z,16.13
2023-02-11T18:55:25.827Z,16.80
2023-02-11T18:57:56.229Z,16.92
2023-02-11T19:00:26.757Z,16.40
2023-02-11T19:02:56.991Z,16.27
2023-02-11T19:05:33.402Z,16.15
2023-02-11T19:08:04.856Z,15.15
2023-02-11T19:10:35.040Z,17.55
2023-02-11T19:13:05.208Z,16.02
2023-02-11T19:15:35.943Z,15.80
2023-02-11T19:18:06.122Z,15.63
2023-02-11T19:20:38.954Z,15.48
2023-02-11T19:23:09.174Z,15.43
2023-02-11T19:25:39.720Z,15.32
2023-02-11T19:28:09.960Z,15.40
2023-02-11T19:30:40.229Z,14.32
2023-02-11T19:33:10.582Z,15.43
2023-02-11T19:35:43.504Z,15.38
2023-02-11T19:38:15.726Z,14.57
2023-02-11T19:40:45.994Z,16.05
2023-02-11T19:43:16.245Z,15.50
2023-02-11T19:45:46.461Z,15.00
2023-02-11T19:48:16.694Z,14.55
2023-02-11T19:50:49.520Z,14.52
2023-02-11T19:53:19.753Z,15.98
2023-02-11T19:55:50.219Z,15.00
2023-02-11T19:58:21.153Z,14.98
2023-02-11T20:00:51.390Z,15.65
2023-02-11T20:03:21.644Z,15.57
2023-02-11T20:05:54.311Z,14.70
2023-02-11T20:08:24.605Z,15.13
2023-02-11T20:10:54.885Z,14.45
2023-02-11T20:13:25.296Z,15.68
2023-02-11T20:15:55.666Z,14.15
2023-02-11T20:18:26.004Z,15.15
2023-02-11T20:21:00.287Z,16.88
2023-02-11T20:23:31.300Z,16.00
2023-02-11T20:26:01.475Z,15.68
2023-02-11T20:28:31.690Z,15.63
2023-02-11T20:31:02.444Z,17.13
2023-02-11T20:33:33.122Z,17.23
2023-02-11T20:36:08.849Z,17.90
2023-02-11T20:38:39.373Z,19.50
2023-02-11T20:41:13.950Z,18.60
2023-02-11T20:43:45.897Z,16.65
2023-02-11T20:46:16.990Z,16.75
2023-02-11T20:48:47.406Z,15.65
2023-02-11T20:51:22.008Z,18.30
2023-02-11T20:53:52.550Z,17.23
2023-02-11T20:56:23.584Z,16.15
2023-02-11T20:58:54.115Z,15.88
2023-02-11T21:01:25.819Z,17.20
2023-02-11T21:03:58.176Z,18.15
2023-02-11T21:06:34.576Z,16.75
2023-02-11T21:09:04.811Z,16.40
2023-02-11T21:11:35.188Z,15.95
2023-02-11T21:14:05.669Z,15.02
2023-02-11T21:16:35.894Z,16.88
2023-02-11T21:19:06.265Z,16.20
2023-02-11T21:21:39.931Z,17.15
2023-02-11T21:24:10.799Z,17.13
2023-02-11T21:26:41.417Z,17.52
2023-02-11T21:29:11.920Z,18.02
2023-02-11T21:31:42.991Z,16.40
2023-02-11T21:34:13.308Z,16.67
2023-02-11T21:36:45.983Z,17.58
2023-02-11T21:39:16.361Z,18.25
2023-02-11T21:41:46.714Z,19.65
2023-02-11T21:44:16.878Z,17.27
2023-02-11T21:46:47.145Z,16.60
2023-02-11T21:49:17.368Z,18.42
2023-02-11T21:51:49.874Z,18.42
2023-02-11T21:54:20.583Z,18.23
2023-02-11T21:56:53.301Z,17.58
2023-02-11T21:59:23.592Z,18.67
2023-02-11T22:01:53.905Z,18.02
2023-02-11T22:04:24.540Z,17.13
2023-02-11T22:06:57.667Z,17.38
2023-02-11T22:09:27.994Z,18.30
2023-02-11T22:11:58.245Z,17.63
2023-02-11T22:14:30.658Z,17.77
2023-02-11T22:17:02.337Z,17.45
2023-02-11T22:19:32.944Z,17.27
2023-02-11T22:22:05.665Z,17.83
2023-02-11T22:24:35.913Z,17.15
2023-02-11T22:27:06.191Z,18.10
2023-02-11T22:29:36.445Z,18.45
2023-02-11T22:32:06.845Z,20.00
2023-02-11T22:34:37.175Z,19.08
2023-02-11T22:37:10.253Z,19.00
2023-02-11T22:39:41.988Z,17.35
2023-02-11T22:42:12.258Z,18.05
2023-02-11T22:44:42.140Z,19.25
2023-02-11T22:47:12.321Z,17.83
2023-02-11T22:49:42.631Z,17.55
2023-02-11T22:52:16.714Z,17.17
2023-02-11T22:54:47.084Z,17.23
2023-02-11T22:57:17.296Z,20.42
2023-02-11T22:59:47.586Z,17.48
2023-02-11T23:02:17.926Z,18.45
2023-02-11T23:04:49.933Z,20.40
2023-02-11T23:07:22.869Z,21.73
2023-02-11T23:09:53.066Z,20.15
2023-02-11T23:12:23.260Z,16.88
2023-02-11T23:14:54.145Z,17.45
2023-02-11T23:17:24.601Z,16.75
2023-02-11T23:19:54.785Z,17.70
2023-02-11T23:22:27.577Z,17.08
2023-02-11T23:24:57.938Z,16.52
2023-02-11T23:27:28.108Z,17.10
2023-02-11T23:29:58.936Z,16.00
2023-02-11T23:32:29.227Z,18.33
2023-02-11T23:34:59.530Z,16.30
2023-02-11T23:37:32.451Z,16.58
2023-02-11T23:40:02.698Z,16.48
2023-02-11T23:42:32.909Z,16.98
2023-02-11T23:45:03.482Z,17.90
2023-02-11T23:47:33.673Z,16.73
2023-02-11T23:50:04.114Z,16.98
2023-02-11T23:52:37.006Z,18.50
2023-02-11T23:55:07.726Z,18.55
2023-02-11T23:57:38.001Z,20.92
